Time;durP1;ratioP1;P1;durP2;ratioP2;P2;SDS_P1;SDS_P2;PMS_P1;PMS_P2;Temp;Humidity;BMP_temperature;BMP_pressure;BME280_temperature;BME280_humidity;BME280_pressure;Samples;Min_cycle;Max_cycle;Signal;HPM_P1;HPM_P2
2022/03/23 00:00:43;;;;;;;24.38;15.13;;;;;;;6.22;37.83;101897.56;5109216;28;20024;-76
2022/03/23 00:03:10;;;;;;;27.42;14.25;;;;;;;6.27;37.63;101899.09;5109331;28;20066;-76
2022/03/23 00:05:39;;;;;;;26.27;14.88;;;;;;;6.23;38.00;101881.50;5109112;28;20046;-76
2022/03/23 00:08:04;;;;;;;24.63;14.90;;;;;;;6.35;37.72;101894.28;5110173;28;20023;-76
2022/03/23 00:10:30;;;;;;;25.48;15.38;;;;;;;6.38;37.55;101891.47;5109831;28;20080;-76
2022/03/23 00:12:57;;;;;;;27.13;14.43;;;;;;;6.43;37.38;101891.28;5110030;28;20506;-76
2022/03/23 00:15:23;;;;;;;32.22;16.10;;;;;;;6.39;37.23;101879.03;5108502;28;20023;-75
2022/03/23 00:17:48;;;;;;;28.55;15.38;;;;;;;6.43;36.99;101876.16;5110035;28;20035;-75
2022/03/23 00:20:15;;;;;;;27.77;15.07;;;;;;;6.54;37.30;101889.84;5109728;28;20065;-73
2022/03/23 00:22:40;;;;;;;25.70;15.57;;;;;;;6.46;37.29;101867.16;5106473;28;20023;-73
2022/03/23 00:25:08;;;;;;;24.70;15.20;;;;;;;6.58;37.00;101888.75;5108023;28;20471;-74
2022/03/23 00:27:34;;;;;;;26.73;14.57;;;;;;;6.66;36.72;101899.06;5107026;28;20449;-74
2022/03/23 00:30:00;;;;;;;27.38;15.50;;;;;;;6.55;36.85;101867.56;5106111;28;20020;-73
2022/03/23 00:32:25;;;;;;;32.00;16.00;;;;;;;6.62;37.20;101873.50;5106249;28;20495;-74
2022/03/23 00:34:51;;;;;;;27.17;14.65;;;;;;;6.73;36.94;101887.16;5107901;28;20497;-74
2022/03/23 00:37:16;;;;;;;26.80;15.50;;;;;;;6.64;36.91;101866.28;5106643;28;20042;-74
2022/03/23 00:39:42;;;;;;;24.90;15.27;;;;;;;6.75;36.54;101886.16;5106558;28;20027;-73
2022/03/23 00:42:07;;;;;;;27.95;15.60;;;;;;;6.66;36.81;101883.94;5107828;28;20028;-73
2022/03/23 00:44:33;;;;;;;26.88;15.60;;;;;;;6.72;36.51;101885.47;5107533;28;20035;-74
2022/03/23 00:46:58;;;;;;;30.15;15.63;;;;;;;6.69;36.45;101882.94;5107549;28;20016;-73
2022/03/23 00:49:24;;;;;;;25.85;14.60;;;;;;;6.65;36.52;101887.53;5107315;28;20111;-74
2022/03/23 00:51:53;;;;;;;30.48;15.52;;;;;;;6.63;36.59;101880.53;5106302;28;20027;-74
2022/03/23 00:54:21;;;;;;;27.38;15.40;;;;;;;6.61;36.55;101877.09;5106124;28;20034;-73
2022/03/23 00:56:48;;;;;;;26.73;15.00;;;;;;;6.62;36.77;101886.81;5106450;28;20034;-74
2022/03/23 00:59:13;;;;;;;28.25;15.63;;;;;;;6.52;36.81;101873.03;5105587;28;20016;-74
2022/03/23 01:01:39;;;;;;;26.10;15.27;;;;;;;6.54;36.79;101879.19;5107686;28;20046;-73
2022/03/23 01:04:05;;;;;;;28.08;15.05;;;;;;;6.51;37.09;101873.09;5106280;28;20047;-73
2022/03/23 01:06:32;;;;;;;28.75;14.70;;;;;;;6.49;37.04;101875.84;5105975;28;20039;-73
2022/03/23 01:08:57;;;;;;;29.60;15.55;;;;;;;6.35;37.00;101846.31;5105867;28;20061;-73
2022/03/23 01:11:23;;;;;;;28.75;14.65;;;;;;;6.46;37.23;101868.03;5107204;28;20035;-74
2022/03/23 01:13:48;;;;;;;26.65;14.95;;;;;;;6.38;36.78;101864.81;5107340;28;20027;-73
2022/03/23 01:16:16;;;;;;;24.73;14.13;;;;;;;6.41;37.33;101863.81;5106922;28;20031;-74
2022/03/23 01:18:42;;;;;;;24.23;13.35;;;;;;;6.42;37.25;101871.75;5105926;28;20391;-74
2022/03/23 01:21:07;;;;;;;23.33;14.38;;;;;;;6.39;37.38;101876.38;5106083;28;20023;-73
2022/03/23 01:23:33;;;;;;;22.38;14.45;;;;;;;6.35;37.31;101872.97;5106053;28;20027;-73
2022/03/23 01:25:59;;;;;;;26.70;15.88;;;;;;;6.36;37.53;101877.34;5105691;28;20031;-74
2022/03/23 01:28:24;;;;;;;26.67;15.10;;;;;;;6.29;37.70;101870.56;5107246;28;20056;-74
2022/03/23 01:30:50;;;;;;;26.17;15.60;;;;;;;6.25;37.52;101869.00;5111063;28;20027;-74
2022/03/23 01:33:15;;;;;;;25.50;14.20;;;;;;;6.18;37.32;101861.34;5110664;28;20231;-73
2022/03/23 01:35:41;;;;;;;27.08;14.40;;;;;;;6.18;37.49;101869.31;5109644;28;20530;-73
2022/03/23 01:38:06;;;;;;;25.75;14.48;;;;;;;6.14;37.74;101857.09;5110990;28;20504;-74
2022/03/23 01:40:32;;;;;;;25.38;14.52;;;;;;;6.20;37.84;101876.34;5110552;28;20127;-73
2022/03/23 01:42:57;;;;;;;25.38;15.18;;;;;;;6.09;37.98;101867.06;5109347;28;20077;-73
2022/03/23 01:45:22;;;;;;;23.13;13.63;;;;;;;6.07;38.19;101866.28;5109115;28;20023;-73
2022/03/23 01:47:48;;;;;;;25.85;14.25;;;;;;;6.13;38.04;101880.19;5110708;28;20076;-73
2022/03/23 01:50:13;;;;;;;24.00;13.77;;;;;;;5.99;37.91;101860.44;5110249;28;20039;-74
2022/03/23 01:52:40;;;;;;;27.77;13.52;;;;;;;6.07;38.15;101884.94;5110663;28;20031;-73
2022/03/23 01:55:13;;;;;;;25.15;14.75;;;;;;;5.98;38.40;101874.69;5109169;28;20028;-73
2022/03/23 01:57:40;;;;;;;27.05;14.50;;;;;;;5.99;38.09;101884.41;5110591;28;20049;-73
2022/03/23 02:00:07;;;;;;;23.35;13.30;;;;;;;5.95;38.48;101877.47;5110782;27;20026;-73
2022/03/23 02:02:33;;;;;;;22.40;13.82;;;;;;;5.85;38.45;101871.72;5108710;28;20063;-73
2022/03/23 02:04:58;;;;;;;23.15;13.82;;;;;;;5.88;38.67;101884.00;5110250;28;20059;-73
2022/03/23 02:07:24;;;;;;;29.92;14.38;;;;;;;5.81;38.62;101887.84;5110603;28;20023;-73
2022/03/23 02:09:50;;;;;;;22.75;13.95;;;;;;;5.72;38.88;101869.59;5108764;28;20031;-73
2022/03/23 02:12:16;;;;;;;27.10;14.13;;;;;;;5.66;38.89;101868.06;5108391;28;20023;-73
2022/03/23 02:14:41;;;;;;;26.30;13.52;;;;;;;5.69;38.93;101883.03;5110173;28;20027;-73
2022/03/23 02:17:07;;;;;;;25.15;14.38;;;;;;;5.61;39.13;101874.53;5108673;28;20026;-73
2022/03/23 02:19:33;;;;;;;31.60;13.90;;;;;;;5.61;39.40;101886.03;5109966;28;20111;-73
2022/03/23 02:21:59;;;;;;;24.52;14.00;;;;;;;5.53;39.51;101874.84;5108897;28;20023;-74
2022/03/23 02:24:27;;;;;;;23.45;13.52;;;;;;;5.53;39.63;101871.31;5109822;28;20388;-73
2022/03/23 02:26:53;;;;;;;21.88;12.80;;;;;;;5.56;39.43;101890.69;5109940;27;20163;-73
2022/03/23 02:29:22;;;;;;;25.30;13.70;;;;;;;5.45;39.72;101870.78;5109281;28;20069;-73
2022/03/23 02:31:47;;;;;;;26.88;14.13;;;;;;;5.39;39.57;101874.56;5108477;28;20060;-73
2022/03/23 02:34:13;;;;;;;24.27;12.60;;;;;;;5.48;39.60;101887.47;5109350;28;20027;-73
2022/03/23 02:36:38;;;;;;;21.30;13.43;;;;;;;5.40;39.68;101881.63;5109846;28;20233;-73
2022/03/23 02:39:04;;;;;;;29.02;12.80;;;;;;;5.38;39.82;101888.78;5109080;28;20127;-73
2022/03/23 02:41:30;;;;;;;24.80;12.98;;;;;;;5.35;39.71;101890.72;5109575;28;20482;-73
2022/03/23 02:43:56;;;;;;;23.10;13.25;;;;;;;5.33;40.20;101895.22;5108059;28;20119;-73
2022/03/23 02:46:22;;;;;;;25.48;12.80;;;;;;;5.33;40.26;101900.56;5109315;28;20099;-73
2022/03/23 02:48:51;;;;;;;25.13;13.20;;;;;;;5.23;40.39;101873.47;5109346;28;20027;-72
2022/03/23 02:51:17;;;;;;;23.10;13.30;;;;;;;5.29;40.61;101890.97;5109328;28;20540;-72
2022/03/23 03:02:22;;;;;;;22.20;12.55;;;;;;;5.24;40.94;101895.59;5108701;27;20334;-72
2022/03/23 03:04:51;;;;;;;23.33;13.85;;;;;;;5.17;40.56;101886.16;5108239;28;20027;-73
2022/03/23 03:07:18;;;;;;;23.55;14.18;;;;;;;5.22;41.13;101897.47;5109369;27;20493;-73
2022/03/23 03:09:43;;;;;;;22.77;13.20;;;;;;;5.26;41.02;101910.59;5113722;27;20103;-73
2022/03/23 03:12:11;;;;;;;32.50;14.20;;;;;;;5.24;41.17;101907.13;5112037;27;20114;-73
2022/03/23 03:14:40;;;;;;;23.63;13.00;;;;;;;5.20;40.96;101899.31;5109848;27;20023;-72
2022/03/23 03:17:07;;;;;;;22.92;13.45;;;;;;;5.22;41.30;101903.66;5110966;27;20035;-73
2022/03/23 03:19:33;;;;;;;23.13;13.07;;;;;;;5.22;41.28;101913.44;5110948;27;20035;-73
2022/03/23 03:21:59;;;;;;;23.65;14.05;;;;;;;5.13;41.34;101893.41;5109971;27;20106;-73
2022/03/23 03:24:24;;;;;;;26.80;13.65;;;;;;;5.17;41.21;101895.00;5106462;28;20034;-75
2022/03/23 03:26:50;;;;;;;27.58;14.55;;;;;;;5.22;41.32;101908.13;5113709;27;20101;-75
2022/03/23 03:29:16;;;;;;;21.50;13.10;;;;;;;5.21;41.60;101904.59;5111456;27;20032;-75
2022/03/23 03:31:42;;;;;;;26.50;14.63;;;;;;;5.18;41.58;101906.50;5112856;27;20042;-75
2022/03/23 03:34:08;;;;;;;27.08;13.43;;;;;;;5.17;41.80;101902.97;5112019;27;20027;-75
2022/03/23 03:36:34;;;;;;;28.92;15.40;;;;;;;5.19;41.67;101900.25;5110982;27;20035;-75
2022/03/23 03:39:00;;;;;;;28.25;14.18;;;;;;;5.27;41.84;101925.63;5116330;27;20027;-75
2022/03/23 03:41:26;;;;;;;31.10;16.10;;;;;;;5.19;41.88;101901.09;5113915;27;20509;-75
2022/03/23 03:43:51;;;;;;;24.35;14.85;;;;;;;5.22;41.75;101908.13;5109548;27;20088;-75
2022/03/23 03:46:17;;;;;;;25.92;14.38;;;;;;;5.25;42.01;101908.84;5111265;27;20035;-75
2022/03/23 03:48:42;;;;;;;33.60;16.15;;;;;;;5.28;41.47;101905.19;5115512;27;20019;-75
2022/03/23 03:51:08;;;;;;;27.33;14.85;;;;;;;5.24;42.12;101898.25;5109051;27;20015;-74
2022/03/23 03:53:35;;;;;;;30.15;15.32;;;;;;;5.24;41.97;101901.81;5112567;27;20058;-75
2022/03/23 03:56:01;;;;;;;26.80;15.18;;;;;;;5.28;41.74;101906.06;5110647;27;20092;-75
2022/03/23 03:58:27;;;;;;;25.42;15.18;;;;;;;5.24;42.12;101904.47;5111438;27;20035;-75
2022/03/23 04:00:52;;;;;;;28.63;15.40;;;;;;;5.28;41.72;101908.72;5108987;27;20476;-75
2022/03/23 04:03:18;;;;;;;30.58;17.55;;;;;;;5.24;42.06;101896.47;5107847;28;20032;-75
2022/03/23 04:05:44;;;;;;;27.00;15.95;;;;;;;5.27;41.91;101899.00;5106916;28;20076;-74
2022/03/23 04:08:10;;;;;;;33.42;15.98;;;;;;;5.34;42.05;101913.78;5108172;28;20455;-75
2022/03/23 04:10:36;;;;;;;34.97;16.25;;;;;;;5.35;42.04;101914.66;5106512;28;20089;-74
2022/03/23 04:13:02;;;;;;;33.70;16.95;;;;;;;5.25;42.33;101900.03;5107560;28;20133;-75
2022/03/23 04:15:27;;;;;;;30.33;17.02;;;;;;;5.27;42.18;101911.44;5106380;28;20031;-74
2022/03/23 04:17:53;;;;;;;30.48;15.88;;;;;;;5.31;42.21;101913.91;5108190;28;20028;-73
2022/03/23 04:20:19;;;;;;;30.02;16.40;;;;;;;5.33;42.33;101921.84;5106107;28;20016;-73
2022/03/23 04:22:44;;;;;;;30.95;17.23;;;;;;;5.33;42.28;101932.47;5106518;28;20118;-73
2022/03/23 04:25:11;;;;;;;28.42;16.80;;;;;;;5.33;42.18;101929.81;5106324;28;20116;-73
2022/03/23 04:27:54;;;;;;;30.60;16.52;;;;;;;5.30;42.42;101933.47;5105929;28;20048;-73
2022/03/23 04:30:22;;;;;;;32.03;17.92;;;;;;;5.26;42.44;101937.19;5108936;28;20020;-73
2022/03/23 04:32:49;;;;;;;36.65;17.35;;;;;;;5.28;42.30;101945.97;5109758;28;20085;-72
2022/03/23 04:35:16;;;;;;;30.35;16.65;;;;;;;5.28;42.18;101945.09;5109397;28;20116;-73
2022/03/23 04:37:42;;;;;;;29.65;17.02;;;;;;;5.26;42.31;101941.63;5108316;28;20110;-73
2022/03/23 04:40:09;;;;;;;29.75;17.77;;;;;;;5.26;42.23;101950.50;5109949;28;20039;-73
2022/03/23 04:42:36;;;;;;;31.00;17.02;;;;;;;5.23;42.46;101944.41;5109593;28;20031;-73
2022/03/23 04:45:03;;;;;;;28.30;15.88;;;;;;;5.17;42.34;101948.19;5109437;28;20425;-72
2022/03/23 04:47:29;;;;;;;30.05;16.52;;;;;;;5.25;42.79;101961.19;5109223;28;20036;-72
2022/03/23 04:49:54;;;;;;;34.65;16.85;;;;;;;5.21;42.74;101956.91;5109617;28;20032;-72
2022/03/23 04:52:20;;;;;;;32.92;16.20;;;;;;;5.22;42.50;101962.16;5107592;28;20024;-73
2022/03/23 04:54:46;;;;;;;31.63;17.30;;;;;;;5.17;42.90;101950.84;5109512;28;20050;-73
2022/03/23 04:57:11;;;;;;;37.08;17.15;;;;;;;5.16;42.70;101959.75;5109218;28;20471;-73
2022/03/23 04:59:37;;;;;;;36.83;17.08;;;;;;;5.17;42.71;101960.63;5109062;28;20497;-73
2022/03/23 05:02:02;;;;;;;32.08;16.50;;;;;;;5.18;42.63;101965.00;5109344;28;20027;-73
2022/03/23 05:04:28;;;;;;;36.85;16.95;;;;;;;5.17;42.90;101955.28;5111734;28;20084;-73
2022/03/23 05:06:53;;;;;;;32.50;16.65;;;;;;;5.07;42.98;101944.16;5111734;28;20035;-73
2022/03/23 05:09:19;;;;;;;30.98;17.65;;;;;;;5.11;43.04;101948.44;5113326;28;20084;-73
2022/03/23 05:11:44;;;;;;;30.90;16.48;;;;;;;5.14;43.12;101958.94;5111930;28;20027;-73
2022/03/23 05:14:10;;;;;;;32.80;16.55;;;;;;;5.13;43.31;101961.66;5111602;28;20023;-73
2022/03/23 05:16:35;;;;;;;32.20;17.38;;;;;;;5.16;43.07;101981.00;5112987;28;20019;-73
2022/03/23 05:19:01;;;;;;;36.47;17.05;;;;;;;5.09;43.43;101968.88;5113253;28;20030;-73
2022/03/23 05:21:26;;;;;;;30.35;16.38;;;;;;;5.11;43.31;101975.03;5112800;28;20031;-73
2022/03/23 05:23:52;;;;;;;30.27;17.35;;;;;;;5.15;43.36;101981.94;5111794;28;20034;-73
2022/03/23 05:26:17;;;;;;;31.80;15.45;;;;;;;5.14;43.33;101971.38;5112483;28;20443;-73
2022/03/23 05:28:43;;;;;;;30.05;17.15;;;;;;;5.13;43.09;101970.53;5111585;28;20028;-73
2022/03/23 05:31:09;;;;;;;31.52;17.55;;;;;;;5.21;43.60;101978.19;5111393;28;20505;-73
2022/03/23 05:33:35;;;;;;;32.85;16.38;;;;;;;5.22;43.46;101971.94;5112760;27;20039;-74
2022/03/23 05:36:01;;;;;;;32.72;16.42;;;;;;;5.23;43.14;101969.22;5112701;28;20035;-74
2022/03/23 05:38:26;;;;;;;31.05;16.48;;;;;;;5.28;43.23;101971.69;5110941;28;20073;-74
2022/03/23 05:40:51;;;;;;;29.95;15.65;;;;;;;5.33;43.04;101967.94;5112917;28;20470;-71
2022/03/23 05:43:18;;;;;;;29.83;16.10;;;;;;;5.36;42.98;101962.50;5112147;27;20027;-71
2022/03/23 05:45:43;;;;;;;32.10;17.45;;;;;;;5.45;43.21;101978.06;5112558;28;20407;-71
2022/03/23 05:48:09;;;;;;;30.23;17.65;;;;;;;5.42;42.69;101956.91;5112509;28;20047;-72
2022/03/23 05:50:34;;;;;;;30.80;17.35;;;;;;;5.62;42.70;101988.03;5112270;28;20081;-72
2022/03/23 05:53:00;;;;;;;34.30;17.55;;;;;;;5.62;42.72;101956.97;5110621;28;20042;-71
2022/03/23 05:55:26;;;;;;;35.78;16.95;;;;;;;5.80;42.32;101981.97;5110732;28;20114;-70
2022/03/23 05:57:51;;;;;;;29.35;16.92;;;;;;;5.78;41.96;101967.84;5112365;28;20019;-72
2022/03/23 06:00:17;;;;;;;33.28;16.65;;;;;;;5.93;42.32;101978.75;5110595;28;20110;-72
2022/03/23 06:02:42;;;;;;;34.15;16.70;;;;;;;5.96;42.15;101970.63;5112418;28;20067;-72
2022/03/23 06:05:09;;;;;;;34.95;16.85;;;;;;;6.17;41.84;101976.84;5112607;28;20039;-72
2022/03/23 06:07:35;;;;;;;31.77;16.40;;;;;;;6.23;41.59;101973.91;5111003;28;20109;-73
2022/03/23 06:10:02;;;;;;;32.42;16.98;;;;;;;6.39;41.43;101972.31;5111104;28;20059;-73
2022/03/23 06:12:27;;;;;;;30.95;16.60;;;;;;;6.57;41.26;101984.78;5112262;28;20531;-72
2022/03/23 06:14:53;;;;;;;26.35;16.10;;;;;;;6.62;41.27;101970.31;5111886;28;20102;-73
2022/03/23 06:17:19;;;;;;;34.63;17.52;;;;;;;6.77;41.02;101974.97;5112223;28;20031;-72
2022/03/23 06:19:44;;;;;;;29.60;15.80;;;;;;;6.96;40.75;101975.84;5110986;28;20023;-72
2022/03/23 06:22:10;;;;;;;28.27;17.08;;;;;;;7.19;40.42;101987.25;5111885;28;20496;-72
2022/03/23 06:24:35;;;;;;;30.55;15.68;;;;;;;7.29;40.42;101978.72;5110964;28;20031;-73
2022/03/23 06:27:01;;;;;;;27.70;15.98;;;;;;;7.40;40.24;101970.19;5112078;28;20043;-72
2022/03/23 06:29:26;;;;;;;37.30;17.05;;;;;;;7.55;39.87;101972.13;5110495;28;20038;-72
2022/03/23 06:31:52;;;;;;;38.90;17.40;;;;;;;7.78;39.50;101982.53;5112282;28;20035;-72
2022/03/23 06:34:18;;;;;;;34.28;16.33;;;;;;;7.95;39.26;101974.53;5111618;28;20031;-72
2022/03/23 06:36:43;;;;;;;32.70;15.38;;;;;;;8.06;39.19;101961.50;5111723;28;20042;-72
2022/03/23 06:39:09;;;;;;;29.10;15.57;;;;;;;8.34;39.42;101984.06;5111735;28;20024;-73
2022/03/23 06:41:34;;;;;;;32.92;16.88;;;;;;;8.53;38.69;101984.84;5111361;28;20080;-72
2022/03/23 06:44:00;;;;;;;32.97;17.13;;;;;;;8.73;38.70;101983.75;5111567;28;20032;-72
2022/03/23 06:46:25;;;;;;;33.03;15.25;;;;;;;8.91;38.22;101972.91;5110968;28;20092;-72
2022/03/23 06:48:51;;;;;;;29.88;16.27;;;;;;;9.18;38.15;101982.13;5110205;28;20034;-72
2022/03/23 06:51:17;;;;;;;33.50;17.02;;;;;;;9.35;37.77;101973.13;5109509;28;20019;-72
2022/03/23 06:53:43;;;;;;;33.05;16.73;;;;;;;9.60;37.78;101969.91;5111294;28;20028;-72
2022/03/23 06:56:09;;;;;;;82.22;18.80;;;;;;;9.93;37.68;101981.38;5111147;28;20016;-72
2022/03/23 06:58:35;;;;;;;31.02;17.55;;;;;;;10.10;37.04;101963.38;5110843;28;20038;-72
2022/03/23 07:01:00;;;;;;;31.30;16.17;;;;;;;10.38;36.80;101967.94;5110999;28;20126;-72
2022/03/23 07:03:27;;;;;;;28.23;15.88;;;;;;;10.58;36.64;101960.38;5110731;28;20394;-72
2022/03/23 07:05:52;;;;;;;39.63;16.88;;;;;;;10.90;35.71;101964.59;5111470;28;20421;-72
2022/03/23 07:11:03;;;;;;;35.30;15.13;;;;;;;11.51;35.29;101972.25;5111068;28;20073;-72
2022/03/23 07:13:28;;;;;;;33.17;16.25;;;;;;;11.89;34.18;101969.75;5107171;28;20039;-72
2022/03/23 07:15:54;;;;;;;31.23;15.38;;;;;;;12.06;34.39;101966.81;5104474;28;20034;-72
2022/03/23 07:18:19;;;;;;;33.22;15.60;;;;;;;12.38;34.51;101978.91;5110486;28;20035;-73
2022/03/23 07:20:45;;;;;;;26.73;15.02;;;;;;;12.61;33.97;101978.19;5110486;28;20073;-72
2022/03/23 07:23:11;;;;;;;31.35;15.57;;;;;;;12.94;33.58;101982.06;5108889;28;20045;-72
2022/03/23 07:25:36;;;;;;;33.72;14.88;;;;;;;13.21;32.79;101979.22;5109669;28;20047;-73
2022/03/23 07:28:02;;;;;;;39.00;14.95;;;;;;;13.47;32.37;101975.47;5108512;28;20047;-73
2022/03/23 07:30:29;;;;;;;37.40;14.93;;;;;;;13.71;32.18;101982.63;5109106;28;20027;-73
2022/03/23 07:32:56;;;;;;;34.58;16.27;;;;;;;13.91;31.88;101964.06;5109369;28;20047;-73
2022/03/23 07:35:24;;;;;;;34.83;14.98;;;;;;;14.18;31.81;101970.09;5108496;28;20031;-72
2022/03/23 07:37:49;;;;;;;35.78;15.15;;;;;;;14.36;31.58;101966.00;5106580;28;20085;-72
2022/03/23 07:40:15;;;;;;;36.58;14.85;;;;;;;14.61;31.01;101961.25;5109935;28;20494;-73
2022/03/23 07:42:40;;;;;;;38.58;16.17;;;;;;;14.86;30.70;101954.75;5108549;28;20587;-73
2022/03/23 07:45:07;;;;;;;44.60;16.40;;;;;;;15.16;30.59;101960.44;5110099;28;20395;-73
2022/03/23 07:47:33;;;;;;;40.13;16.00;;;;;;;15.35;30.15;101947.16;5109636;28;20135;-73
2022/03/23 07:49:58;;;;;;;35.40;15.88;;;;;;;15.57;29.90;101947.97;5109978;28;20120;-73
2022/03/23 07:52:24;;;;;;;36.05;14.70;;;;;;;15.88;29.70;101957.09;5108498;28;20041;-73
2022/03/23 07:54:51;;;;;;;39.17;15.48;;;;;;;16.17;29.33;101951.91;5108808;28;20032;-73
2022/03/23 07:57:17;;;;;;;36.00;15.95;;;;;;;16.52;29.36;101947.94;5110847;28;20031;-73
2022/03/23 07:59:43;;;;;;;44.17;15.98;;;;;;;17.02;28.58;101952.47;5108763;28;20028;-73
2022/03/23 08:02:09;;;;;;;44.85;16.75;;;;;;;17.86;27.54;101946.56;5108686;28;20026;-73
2022/03/23 08:04:34;;;;;;;41.70;16.38;;;;;;;18.72;26.62;101943.78;5109117;28;20346;-73
2022/03/23 08:07:02;;;;;;;38.00;16.13;;;;;;;19.65;25.46;101946.25;5109149;28;20031;-73
2022/03/23 08:09:28;;;;;;;38.97;14.65;;;;;;;20.73;24.16;101938.69;5109080;28;20027;-73
2022/03/23 08:11:53;;;;;;;36.25;13.77;;;;;;;21.89;23.60;101944.16;5110024;28;20053;-73
2022/03/23 08:14:19;;;;;;;41.45;14.63;;;;;;;23.05;22.17;101939.13;5110151;28;20372;-74
2022/03/23 08:16:44;;;;;;;42.03;14.25;;;;;;;23.85;21.16;101929.69;5109959;28;20042;-73
2022/03/23 08:19:10;;;;;;;34.22;14.65;;;;;;;24.63;20.77;101933.03;5108872;28;20035;-74
2022/03/23 08:21:35;;;;;;;35.30;13.25;;;;;;;25.27;20.06;101935.06;5108804;28;20031;-73
2022/03/23 08:24:01;;;;;;;38.70;11.65;;;;;;;25.93;19.50;101938.44;5110244;28;20027;-73
2022/03/23 08:26:27;;;;;;;42.05;11.45;;;;;;;26.49;19.01;101929.28;5110112;28;20032;-74
2022/03/23 08:28:52;;;;;;;40.33;11.43;;;;;;;26.72;18.60;101922.72;5110120;28;20102;-73
2022/03/23 08:31:18;;;;;;;43.20;11.38;;;;;;;27.10;18.51;101927.63;5108570;28;20024;-74
2022/03/23 08:33:44;;;;;;;31.83;11.05;;;;;;;27.52;17.98;101915.56;5110015;28;20030;-74
2022/03/23 08:36:10;;;;;;;37.00;11.65;;;;;;;27.86;18.15;101915.50;5109695;28;20024;-74
2022/03/23 08:38:37;;;;;;;34.15;11.45;;;;;;;28.40;17.81;101924.47;5112742;28;20043;-74
2022/03/23 08:41:06;;;;;;;37.15;11.60;;;;;;;28.62;17.39;101908.56;5114149;28;20057;-74
2022/03/23 08:43:32;;;;;;;33.80;10.57;;;;;;;28.97;17.37;101915.50;5113746;28;20041;-74
2022/03/23 08:45:57;;;;;;;33.78;11.07;;;;;;;29.40;16.75;101914.75;5114015;28;20110;-74
2022/03/23 08:48:22;;;;;;;38.75;11.18;;;;;;;29.61;16.44;101905.34;5114076;28;20031;-74
2022/03/23 08:50:49;;;;;;;39.50;11.40;;;;;;;29.99;16.56;101914.47;5114178;28;20438;-74
2022/03/23 08:53:15;;;;;;;44.25;11.60;;;;;;;30.19;16.33;101899.47;5112478;28;20114;-74
2022/03/23 08:55:41;;;;;;;36.08;10.68;;;;;;;30.46;15.86;101911.16;5112452;28;20130;-74
2022/03/23 08:58:09;;;;;;;41.03;10.30;;;;;;;30.68;15.76;101898.59;5112458;28;20481;-74
2022/03/23 09:00:35;;;;;;;41.40;10.60;;;;;;;30.92;15.55;101894.13;5112734;28;20041;-74
2022/03/23 09:03:00;;;;;;;32.03;10.25;;;;;;;31.19;15.42;101901.91;5113861;28;20346;-74
2022/03/23 09:05:26;;;;;;;42.15;10.55;;;;;;;31.36;15.42;101902.16;5113799;28;20108;-74
2022/03/23 09:07:52;;;;;;;39.42;11.32;;;;;;;31.80;15.03;101913.75;5112353;28;20031;-72
2022/03/23 09:10:19;;;;;;;28.10;9.52;;;;;;;31.83;14.84;101901.34;5112239;28;20119;-71
2022/03/23 09:12:46;;;;;;;40.65;10.20;;;;;;;32.11;14.71;101887.66;5113471;28;20566;-71
2022/03/23 09:15:14;;;;;;;36.30;9.20;;;;;;;32.26;14.50;101890.81;5111831;28;20035;-72
2022/03/23 09:17:41;;;;;;;38.63;9.77;;;;;;;32.50;14.25;101890.63;5113547;28;20039;-72
2022/03/23 09:20:09;;;;;;;39.60;10.00;;;;;;;32.46;14.18;101886.66;5113738;28;20034;-72
2022/03/23 09:22:35;;;;;;;39.72;9.90;;;;;;;32.48;14.39;101892.81;5111331;28;20699;-72
2022/03/23 09:25:06;;;;;;;29.60;9.30;;;;;;;32.71;14.34;101894.75;5112524;28;20046;-73
2022/03/23 09:27:37;;;;;;;33.15;9.05;;;;;;;32.63;14.01;101879.28;5112932;28;20491;-73
2022/03/23 09:30:05;;;;;;;32.47;9.05;;;;;;;32.65;14.36;101872.66;5111602;28;20027;-73
2022/03/23 09:32:30;;;;;;;28.55;9.50;;;;;;;32.67;14.07;101879.66;5112148;28;20114;-72
2022/03/23 09:34:56;;;;;;;27.30;9.10;;;;;;;32.70;14.23;101881.09;5111912;28;20111;-73
2022/03/23 09:40:06;;;;;;;32.40;9.60;;;;;;;33.21;13.58;101859.78;5112516;28;20058;-73
2022/03/23 09:42:32;;;;;;;31.73;8.88;;;;;;;33.03;13.81;101862.72;5112988;28;20030;-73
2022/03/23 09:44:58;;;;;;;24.42;8.48;;;;;;;32.54;13.57;101864.06;5113185;28;20470;-73
2022/03/23 09:47:24;;;;;;;22.08;8.40;;;;;;;33.05;13.51;101854.97;5112929;28;20043;-73
2022/03/23 09:49:50;;;;;;;25.77;8.63;;;;;;;32.95;13.77;101846.41;5112375;28;20031;-73
2022/03/23 09:52:16;;;;;;;23.30;8.43;;;;;;;32.78;13.84;101855.72;5111645;28;20034;-73
2022/03/23 09:54:43;;;;;;;23.50;8.60;;;;;;;32.82;13.48;101854.13;5112873;28;20027;-74
2022/03/23 09:57:08;;;;;;;22.85;8.32;;;;;;;32.78;13.59;101853.75;5113124;28;20501;-74
2022/03/23 09:59:34;;;;;;;18.60;7.60;;;;;;;32.51;13.61;101835.91;5111357;28;20051;-74
2022/03/23 10:02:02;;;;;;;29.25;8.07;;;;;;;31.74;14.14;101842.50;5111852;28;20043;-74
2022/03/23 10:04:49;;;;;;;23.02;8.32;;;;;;;30.93;14.51;101849.53;5111590;28;20031;-74
2022/03/23 10:07:22;;;;;;;21.42;7.75;;;;;;;29.92;15.35;101838.97;5110639;28;20634;-74
2022/03/23 10:10:10;;;;;;;25.38;7.85;;;;;;;28.85;15.71;101848.19;5110932;28;20031;-74
2022/03/23 10:13:03;;;;;;;21.08;8.18;;;;;;;27.70;16.64;101846.91;5110534;28;20030;-75
2022/03/23 10:16:25;;;;;;;25.73;8.00;;;;;;;26.58;17.40;101841.91;5110811;28;20167;-74
2022/03/23 10:18:55;;;;;;;22.50;7.60;;;;;;;25.62;18.39;101833.44;5045189;28;20433;-74
2022/03/23 10:21:24;;;;;;;28.88;7.90;;;;;;;25.07;18.39;101830.44;5057148;28;20472;-75
2022/03/23 10:23:59;;;;;;;24.63;7.70;;;;;;;24.50;18.55;101836.78;5075062;28;20027;-74
2022/03/23 10:26:26;;;;;;;17.30;7.57;;;;;;;24.00;19.07;101824.59;5109057;28;20593;-74
2022/03/23 10:28:51;;;;;;;13.02;6.78;;;;;;;23.76;19.42;101835.72;5109806;28;20188;-74
2022/03/23 10:31:20;;;;;;;15.23;7.03;;;;;;;23.43;19.63;101839.72;5112353;28;20510;-74
2022/03/23 10:34:09;;;;;;;22.02;7.53;;;;;;;23.11;20.10;101834.41;5112562;27;20404;-74
2022/03/23 10:36:50;;;;;;;20.73;7.55;;;;;;;22.66;20.56;101820.56;5111433;28;20070;-74
2022/03/23 10:39:16;;;;;;;19.52;7.25;;;;;;;22.46;20.52;101832.91;5111001;28;20024;-74
2022/03/23 10:41:42;;;;;;;15.70;6.20;;;;;;;22.25;19.50;101818.97;5112296;28;20031;-75
2022/03/23 10:44:18;;;;;;;15.43;6.53;;;;;;;22.00;19.32;101818.16;5112088;28;20039;-74
2022/03/23 10:46:44;;;;;;;16.80;5.93;;;;;;;21.79;19.70;101817.81;5110621;28;20067;-74
2022/03/23 10:49:11;;;;;;;15.38;5.80;;;;;;;21.61;19.50;101822.53;5112046;28;20084;-75
2022/03/23 10:51:37;;;;;;;11.60;6.10;;;;;;;21.36;19.72;101798.09;5110811;28;20039;-75
2022/03/23 10:54:23;;;;;;;14.27;5.88;;;;;;;21.28;20.04;101814.47;5110756;28;20620;-74
2022/03/23 10:56:49;;;;;;;17.60;6.95;;;;;;;21.14;20.22;101831.47;5111895;28;20475;-75
2022/03/23 10:59:22;;;;;;;19.40;6.05;;;;;;;21.04;20.15;101818.00;5111555;28;20363;-74
2022/03/23 11:02:04;;;;;;;15.73;6.53;;;;;;;20.87;20.28;101810.75;5110339;28;20483;-74
2022/03/23 11:04:45;;;;;;;13.68;6.35;;;;;;;20.72;20.40;101793.28;5110430;28;20059;-75
2022/03/23 11:07:35;;;;;;;12.75;6.03;;;;;;;20.74;20.21;101810.34;5110237;28;20023;-74
2022/03/23 11:15:47;;;;;;;10.85;5.53;;;;;;;20.45;20.16;101792.66;5110391;28;20120;-75
2022/03/23 11:18:16;;;;;;;14.98;5.80;;;;;;;20.36;20.14;101794.47;5107450;28;20019;-75
2022/03/23 11:20:52;;;;;;;13.13;5.95;;;;;;;20.29;20.71;101787.97;5111432;28;20035;-75
2022/03/23 11:23:26;;;;;;;13.90;6.07;;;;;;;20.26;20.30;101780.13;5108183;28;20111;-74
2022/03/23 11:25:56;;;;;;;15.13;5.80;;;;;;;20.33;20.11;101783.03;5110057;28;20064;-74
2022/03/23 11:28:23;;;;;;;10.57;5.30;;;;;;;20.25;20.42;101775.69;5109737;28;20146;-74
2022/03/23 11:30:50;;;;;;;11.60;5.10;;;;;;;20.16;20.53;101774.75;5110309;28;20031;-74
2022/03/23 11:33:21;;;;;;;14.43;5.97;;;;;;;20.11;20.95;101762.59;5111730;28;20114;-74